sensor_id;sensor_type;location;lat;lon;timestamp;P1;durP1;ratioP1;P2;durP2;ratioP2
39314;SDS011;28703;44.412;11.918;2024-01-07T00:01:45;8.27;;;7.50;;
39314;SDS011;28703;44.412;11.918;2024-01-07T00:04:14;8.23;;;7.60;;
39314;SDS011;28703;44.412;11.918;2024-01-07T00:06:43;7.80;;;7.20;;
39314;SDS011;28703;44.412;11.918;2024-01-07T00:09:10;8.40;;;7.70;;
39314;SDS011;28703;44.412;11.918;2024-01-07T00:11:37;8.38;;;7.68;;
39314;SDS011;28703;44.412;11.918;2024-01-07T00:14:04;8.70;;;7.85;;
39314;SDS011;28703;44.412;11.918;2024-01-07T00:16:30;8.75;;;6.75;;
39314;SDS011;28703;44.412;11.918;2024-01-07T00:18:55;7.38;;;6.78;;
39314;SDS011;28703;44.412;11.918;2024-01-07T00:21:21;6.82;;;6.03;;
39314;SDS011;28703;44.412;11.918;2024-01-07T00:23:47;7.15;;;6.20;;
39314;SDS011;28703;44.412;11.918;2024-01-07T00:26:13;6.55;;;5.90;;
39314;SDS011;28703;44.412;11.918;2024-01-07T00:28:39;6.55;;;5.95;;
39314;SDS011;28703;44.412;11.918;2024-01-07T00:31:05;5.90;;;5.30;;
39314;SDS011;28703;44.412;11.918;2024-01-07T00:33:34;7.78;;;5.85;;
39314;SDS011;28703;44.412;11.918;2024-01-07T00:36:01;6.60;;;5.30;;
39314;SDS011;28703;44.412;11.918;2024-01-07T00:38:27;8.57;;;4.93;;
39314;SDS011;28703;44.412;11.918;2024-01-07T00:40:53;5.32;;;4.43;;
39314;SDS011;28703;44.412;11.918;2024-01-07T00:43:19;6.43;;;4.43;;
39314;SDS011;28703;44.412;11.918;2024-01-07T00:45:45;5.82;;;4.03;;
39314;SDS011;28703;44.412;11.918;2024-01-07T00:48:12;12.93;;;4.35;;
39314;SDS011;28703;44.412;11.918;2024-01-07T00:50:39;8.20;;;3.90;;
39314;SDS011;28703;44.412;11.918;2024-01-07T00:53:05;5.22;;;3.45;;
39314;SDS011;28703;44.412;11.918;2024-01-07T00:55:31;5.13;;;3.33;;
39314;SDS011;28703;44.412;11.918;2024-01-07T00:57:56;6.13;;;3.10;;
39314;SDS011;28703;44.412;11.918;2024-01-07T01:00:23;9.50;;;3.50;;
39314;SDS011;28703;44.412;11.918;2024-01-07T01:02:49;4.25;;;2.70;;
39314;SDS011;28703;44.412;11.918;2024-01-07T01:05:14;6.68;;;3.03;;
39314;SDS011;28703;44.412;11.918;2024-01-07T01:07:40;3.45;;;2.33;;
39314;SDS011;28703;44.412;11.918;2024-01-07T01:10:06;6.40;;;2.85;;
39314;SDS011;28703;44.412;11.918;2024-01-07T01:12:32;7.00;;;3.10;;
39314;SDS011;28703;44.412;11.918;2024-01-07T01:14:58;5.93;;;2.97;;
39314;SDS011;28703;44.412;11.918;2024-01-07T01:17:24;13.07;;;3.05;;
39314;SDS011;28703;44.412;11.918;2024-01-07T01:19:50;7.70;;;2.53;;
39314;SDS011;28703;44.412;11.918;2024-01-07T01:22:16;6.75;;;2.63;;
39314;SDS011;28703;44.412;11.918;2024-01-07T01:24:42;14.65;;;2.60;;
39314;SDS011;28703;44.412;11.918;2024-01-07T01:27:11;8.35;;;3.40;;
39314;SDS011;28703;44.412;11.918;2024-01-07T01:29:38;7.05;;;2.30;;
39314;SDS011;28703;44.412;11.918;2024-01-07T01:32:05;11.60;;;2.65;;
39314;SDS011;28703;44.412;11.918;2024-01-07T01:34:31;6.07;;;2.30;;
39314;SDS011;28703;44.412;11.918;2024-01-07T01:36:57;8.68;;;2.50;;
39314;SDS011;28703;44.412;11.918;2024-01-07T01:39:23;6.35;;;2.83;;
39314;SDS011;28703;44.412;11.918;2024-01-07T01:41:49;6.90;;;2.60;;
39314;SDS011;28703;44.412;11.918;2024-01-07T01:44:15;5.97;;;2.83;;
39314;SDS011;28703;44.412;11.918;2024-01-07T01:46:41;4.18;;;2.45;;
39314;SDS011;28703;44.412;11.918;2024-01-07T01:49:07;4.93;;;2.17;;
39314;SDS011;28703;44.412;11.918;2024-01-07T01:51:34;9.60;;;2.53;;
39314;SDS011;28703;44.412;11.918;2024-01-07T01:54:00;6.70;;;2.22;;
39314;SDS011;28703;44.412;11.918;2024-01-07T01:56:27;7.05;;;2.38;;
39314;SDS011;28703;44.412;11.918;2024-01-07T01:58:54;6.47;;;2.25;;
39314;SDS011;28703;44.412;11.918;2024-01-07T02:01:22;4.32;;;2.03;;
39314;SDS011;28703;44.412;11.918;2024-01-07T02:03:48;8.15;;;2.35;;
39314;SDS011;28703;44.412;11.918;2024-01-07T02:06:15;10.85;;;2.83;;
39314;SDS011;28703;44.412;11.918;2024-01-07T02:08:41;4.22;;;2.10;;
39314;SDS011;28703;44.412;11.918;2024-01-07T02:13:42;7.07;;;2.15;;
39314;SDS011;28703;44.412;11.918;2024-01-07T02:16:08;5.53;;;2.58;;
39314;SDS011;28703;44.412;11.918;2024-01-07T02:18:34;11.02;;;2.67;;
39314;SDS011;28703;44.412;11.918;2024-01-07T02:21:00;8.77;;;2.58;;
39314;SDS011;28703;44.412;11.918;2024-01-07T02:23:26;5.70;;;2.58;;
39314;SDS011;28703;44.412;11.918;2024-01-07T02:25:51;4.80;;;2.10;;
39314;SDS011;28703;44.412;11.918;2024-01-07T02:28:18;7.35;;;2.20;;
39314;SDS011;28703;44.412;11.918;2024-01-07T02:30:44;8.23;;;2.25;;
39314;SDS011;28703;44.412;11.918;2024-01-07T02:33:10;12.45;;;2.88;;
39314;SDS011;28703;44.412;11.918;2024-01-07T02:35:37;5.18;;;1.70;;
39314;SDS011;28703;44.412;11.918;2024-01-07T02:38:03;9.57;;;1.98;;
39314;SDS011;28703;44.412;11.918;2024-01-07T02:40:28;8.18;;;2.13;;
39314;SDS011;28703;44.412;11.918;2024-01-07T02:42:54;14.55;;;2.97;;
39314;SDS011;28703;44.412;11.918;2024-01-07T02:45:22;5.60;;;2.10;;
39314;SDS011;28703;44.412;11.918;2024-01-07T02:47:48;12.52;;;2.60;;
39314;SDS011;28703;44.412;11.918;2024-01-07T02:50:14;9.50;;;2.08;;
39314;SDS011;28703;44.412;11.918;2024-01-07T02:52:41;8.68;;;1.55;;
39314;SDS011;28703;44.412;11.918;2024-01-07T02:55:07;7.53;;;1.70;;
39314;SDS011;28703;44.412;11.918;2024-01-07T02:57:33;9.88;;;2.47;;
39314;SDS011;28703;44.412;11.918;2024-01-07T02:59:59;6.88;;;2.33;;
39314;SDS011;28703;44.412;11.918;2024-01-07T03:02:25;10.50;;;2.20;;
39314;SDS011;28703;44.412;11.918;2024-01-07T03:04:51;6.28;;;2.00;;
39314;SDS011;28703;44.412;11.918;2024-01-07T03:07:17;7.47;;;2.33;;
39314;SDS011;28703;44.412;11.918;2024-01-07T03:09:43;9.07;;;2.28;;
39314;SDS011;28703;44.412;11.918;2024-01-07T03:12:08;8.07;;;2.22;;
39314;SDS011;28703;44.412;11.918;2024-01-07T03:14:34;9.20;;;2.00;;
39314;SDS011;28703;44.412;11.918;2024-01-07T03:17:00;5.22;;;1.77;;
39314;SDS011;28703;44.412;11.918;2024-01-07T03:19:26;6.75;;;1.55;;
39314;SDS011;28703;44.412;11.918;2024-01-07T03:21:51;10.23;;;1.40;;
39314;SDS011;28703;44.412;11.918;2024-01-07T03:24:17;4.75;;;1.40;;
39314;SDS011;28703;44.412;11.918;2024-01-07T03:26:43;6.57;;;1.60;;
39314;SDS011;28703;44.412;11.918;2024-01-07T03:29:09;8.32;;;1.35;;
39314;SDS011;28703;44.412;11.918;2024-01-07T03:31:34;10.68;;;2.08;;
39314;SDS011;28703;44.412;11.918;2024-01-07T03:34:00;7.65;;;2.17;;
39314;SDS011;28703;44.412;11.918;2024-01-07T03:36:26;2.85;;;0.88;;
39314;SDS011;28703;44.412;11.918;2024-01-07T03:38:52;5.20;;;1.58;;
39314;SDS011;28703;44.412;11.918;2024-01-07T03:41:19;2.70;;;1.10;;
39314;SDS011;28703;44.412;11.918;2024-01-07T03:43:46;5.07;;;1.13;;
39314;SDS011;28703;44.412;11.918;2024-01-07T03:46:12;4.22;;;1.20;;
39314;SDS011;28703;44.412;11.918;2024-01-07T03:48:38;4.95;;;1.67;;
39314;SDS011;28703;44.412;11.918;2024-01-07T03:51:05;4.72;;;2.13;;
39314;SDS011;28703;44.412;11.918;2024-01-07T03:53:31;6.45;;;1.80;;
39314;SDS011;28703;44.412;11.918;2024-01-07T03:55:57;4.30;;;1.98;;
39314;SDS011;28703;44.412;11.918;2024-01-07T03:58:23;4.55;;;1.90;;
39314;SDS011;28703;44.412;11.918;2024-01-07T04:00:49;3.30;;;1.80;;
39314;SDS011;28703;44.412;11.918;2024-01-07T04:03:14;8.10;;;2.03;;
39314;SDS011;28703;44.412;11.918;2024-01-07T04:05:40;3.47;;;1.80;;
39314;SDS011;28703;44.412;11.918;2024-01-07T04:08:09;4.38;;;2.50;;
39314;SDS011;28703;44.412;11.918;2024-01-07T04:10:35;7.00;;;2.45;;
39314;SDS011;28703;44.412;11.918;2024-01-07T04:13:00;6.50;;;2.33;;
39314;SDS011;28703;44.412;11.918;2024-01-07T04:15:26;6.82;;;3.00;;
39314;SDS011;28703;44.412;11.918;2024-01-07T04:17:52;4.63;;;2.85;;
39314;SDS011;28703;44.412;11.918;2024-01-07T04:20:18;4.07;;;3.00;;
39314;SDS011;28703;44.412;11.918;2024-01-07T04:22:44;8.30;;;3.38;;
39314;SDS011;28703;44.412;11.918;2024-01-07T04:25:09;4.55;;;3.17;;
39314;SDS011;28703;44.412;11.918;2024-01-07T04:27:36;8.18;;;3.72;;
39314;SDS011;28703;44.412;11.918;2024-01-07T04:30:03;4.95;;;3.20;;
39314;SDS011;28703;44.412;11.918;2024-01-07T04:32:30;3.88;;;3.17;;
39314;SDS011;28703;44.412;11.918;2024-01-07T04:34:56;4.75;;;3.92;;
39314;SDS011;28703;44.412;11.918;2024-01-07T04:37:23;5.93;;;3.72;;
39314;SDS011;28703;44.412;11.918;2024-01-07T04:39:49;6.00;;;3.90;;
39314;SDS011;28703;44.412;11.918;2024-01-07T04:42:16;7.20;;;3.70;;
39314;SDS011;28703;44.412;11.918;2024-01-07T04:44:42;4.50;;;3.67;;
39314;SDS011;28703;44.412;11.918;2024-01-07T04:49:54;10.07;;;4.07;;
39314;SDS011;28703;44.412;11.918;2024-01-07T04:52:20;5.10;;;3.33;;
39314;SDS011;28703;44.412;11.918;2024-01-07T04:54:47;7.68;;;3.00;;
39314;SDS011;28703;44.412;11.918;2024-01-07T04:57:13;7.78;;;3.35;;
39314;SDS011;28703;44.412;11.918;2024-01-07T04:59:38;3.30;;;2.95;;
39314;SDS011;28703;44.412;11.918;2024-01-07T05:02:04;7.97;;;3.67;;
39314;SDS011;28703;44.412;11.918;2024-01-07T05:04:30;7.25;;;3.55;;
39314;SDS011;28703;44.412;11.918;2024-01-07T05:06:57;5.18;;;3.20;;
39314;SDS011;28703;44.412;11.918;2024-01-07T05:09:23;7.97;;;3.22;;
39314;SDS011;28703;44.412;11.918;2024-01-07T05:11:48;5.03;;;3.08;;
39314;SDS011;28703;44.412;11.918;2024-01-07T05:14:14;3.42;;;2.60;;
39314;SDS011;28703;44.412;11.918;2024-01-07T05:16:40;7.15;;;2.97;;
39314;SDS011;28703;44.412;11.918;2024-01-07T05:19:06;7.72;;;2.70;;
39314;SDS011;28703;44.412;11.918;2024-01-07T05:21:32;8.45;;;3.17;;
39314;SDS011;28703;44.412;11.918;2024-01-07T05:23:57;6.82;;;2.78;;
39314;SDS011;28703;44.412;11.918;2024-01-07T05:26:23;5.40;;;2.60;;
39314;SDS011;28703;44.412;11.918;2024-01-07T05:28:49;11.18;;;2.78;;
39314;SDS011;28703;44.412;11.918;2024-01-07T05:31:15;12.05;;;3.90;;
39314;SDS011;28703;44.412;11.918;2024-01-07T05:33:42;7.47;;;3.22;;
39314;SDS011;28703;44.412;11.918;2024-01-07T05:36:08;4.13;;;2.33;;
39314;SDS011;28703;44.412;11.918;2024-01-07T05:38:35;6.30;;;3.17;;
39314;SDS011;28703;44.412;11.918;2024-01-07T05:41:00;4.53;;;2.42;;
39314;SDS011;28703;44.412;11.918;2024-01-07T05:43:26;3.33;;;2.83;;
39314;SDS011;28703;44.412;11.918;2024-01-07T05:45:52;6.30;;;2.40;;
39314;SDS011;28703;44.412;11.918;2024-01-07T05:48:18;4.15;;;3.35;;
39314;SDS011;28703;44.412;11.918;2024-01-07T05:50:46;3.70;;;2.38;;
39314;SDS011;28703;44.412;11.918;2024-01-07T05:53:12;6.15;;;4.10;;
39314;SDS011;28703;44.412;11.918;2024-01-07T05:55:38;3.70;;;2.70;;
39314;SDS011;28703;44.412;11.918;2024-01-07T05:58:04;4.32;;;2.55;;
39314;SDS011;28703;44.412;11.918;2024-01-07T06:00:30;6.32;;;2.53;;
39314;SDS011;28703;44.412;11.918;2024-01-07T06:02:56;5.45;;;2.55;;
39314;SDS011;28703;44.412;11.918;2024-01-07T06:05:22;4.07;;;2.15;;
39314;SDS011;28703;44.412;11.918;2024-01-07T06:07:49;4.75;;;2.40;;
39314;SDS011;28703;44.412;11.918;2024-01-07T06:10:14;3.80;;;2.50;;
39314;SDS011;28703;44.412;11.918;2024-01-07T06:12:40;6.03;;;3.10;;
39314;SDS011;28703;44.412;11.918;2024-01-07T06:15:06;2.78;;;2.58;;
39314;SDS011;28703;44.412;11.918;2024-01-07T06:17:32;3.13;;;2.83;;
39314;SDS011;28703;44.412;11.918;2024-01-07T06:19:58;3.25;;;3.05;;
39314;SDS011;28703;44.412;11.918;2024-01-07T06:22:24;5.20;;;4.43;;
39314;SDS011;28703;44.412;11.918;2024-01-07T06:24:50;3.90;;;3.60;;
39314;SDS011;28703;44.412;11.918;2024-01-07T06:27:16;3.35;;;3.05;;
39314;SDS011;28703;44.412;11.918;2024-01-07T06:29:41;4.03;;;3.72;;
39314;SDS011;28703;44.412;11.918;2024-01-07T06:32:07;2.97;;;2.78;;
39314;SDS011;28703;44.412;11.918;2024-01-07T06:34:35;3.00;;;2.80;;
39314;SDS011;28703;44.412;11.918;2024-01-07T06:37:01;2.90;;;2.70;;
39314;SDS011;28703;44.412;11.918;2024-01-07T06:39:27;2.85;;;2.65;;
39314;SDS011;28703;44.412;11.918;2024-01-07T06:41:53;2.67;;;2.47;;
39314;SDS011;28703;44.412;11.918;2024-01-07T06:44:19;2.72;;;2.53;;
39314;SDS011;28703;44.412;11.918;2024-01-07T06:46:45;2.80;;;2.58;;
39314;SDS011;28703;44.412;11.918;2024-01-07T06:49:10;4.00;;;2.50;;
39314;SDS011;28703;44.412;11.918;2024-01-07T06:51:37;3.42;;;3.13;;
39314;SDS011;28703;44.412;11.918;2024-01-07T06:54:03;4.97;;;3.08;;
39314;SDS011;28703;44.412;11.918;2024-01-07T06:56:30;2.88;;;2.45;;
39314;SDS011;28703;44.412;11.918;2024-01-07T06:58:56;3.60;;;2.78;;
39314;SDS011;28703;44.412;11.918;2024-01-07T07:01:22;4.57;;;2.83;;
39314;SDS011;28703;44.412;11.918;2024-01-07T07:03:50;3.22;;;2.30;;
39314;SDS011;28703;44.412;11.918;2024-01-07T07:06:16;2.67;;;2.00;;
39314;SDS011;28703;44.412;11.918;2024-01-07T07:08:42;2.00;;;1.90;;
39314;SDS011;28703;44.412;11.918;2024-01-07T07:11:08;3.15;;;2.80;;
39314;SDS011;28703;44.412;11.918;2024-01-07T07:13:34;4.05;;;3.25;;
39314;SDS011;28703;44.412;11.918;2024-01-07T07:16:00;4.53;;;3.17;;
39314;SDS011;28703;44.412;11.918;2024-01-07T07:18:26;7.85;;;3.60;;
39314;SDS011;28703;44.412;11.918;2024-01-07T07:20:52;7.80;;;6.32;;
39314;SDS011;28703;44.412;11.918;2024-01-07T07:23:18;8.52;;;4.85;;
39314;SDS011;28703;44.412;11.918;2024-01-07T07:25:44;4.55;;;4.00;;
39314;SDS011;28703;44.412;11.918;2024-01-07T07:28:09;4.72;;;2.60;;
39314;SDS011;28703;44.412;11.918;2024-01-07T07:30:35;5.65;;;3.33;;
39314;SDS011;28703;44.412;11.918;2024-01-07T07:33:01;3.20;;;2.53;;
39314;SDS011;28703;44.412;11.918;2024-01-07T07:35:28;2.22;;;2.13;;
39314;SDS011;28703;44.412;11.918;2024-01-07T07:37:54;4.40;;;2.22;;
39314;SDS011;28703;44.412;11.918;2024-01-07T07:40:20;2.38;;;2.17;;
39314;SDS011;28703;44.412;11.918;2024-01-07T07:42:46;2.85;;;2.50;;
39314;SDS011;28703;44.412;11.918;2024-01-07T07:45:12;2.80;;;2.40;;
39314;SDS011;28703;44.412;11.918;2024-01-07T07:47:37;4.90;;;2.65;;
39314;SDS011;28703;44.412;11.918;2024-01-07T07:50:06;2.88;;;2.45;;
39314;SDS011;28703;44.412;11.918;2024-01-07T07:52:32;4.20;;;2.38;;
39314;SDS011;28703;44.412;11.918;2024-01-07T07:54:58;4.47;;;2.67;;
39314;SDS011;28703;44.412;11.918;2024-01-07T07:57:24;3.00;;;2.03;;
39314;SDS011;28703;44.412;11.918;2024-01-07T07:59:50;2.88;;;2.28;;
39314;SDS011;28703;44.412;11.918;2024-01-07T08:02:16;4.28;;;2.35;;
39314;SDS011;28703;44.412;11.918;2024-01-07T08:04:43;3.17;;;2.70;;
39314;SDS011;28703;44.412;11.918;2024-01-07T08:07:09;6.18;;;3.90;;
39314;SDS011;28703;44.412;11.918;2024-01-07T08:09:35;4.20;;;2.80;;
39314;SDS011;28703;44.412;11.918;2024-01-07T08:12:05;2.70;;;2.50;;
39314;SDS011;28703;44.412;11.918;2024-01-07T08:14:31;2.78;;;2.50;;
39314;SDS011;28703;44.412;11.918;2024-01-07T08:16:58;4.32;;;2.92;;
39314;SDS011;28703;44.412;11.918;2024-01-07T08:19:24;2.58;;;2.38;;
39314;SDS011;28703;44.412;11.918;2024-01-07T08:21:50;4.20;;;2.80;;
39314;SDS011;28703;44.412;11.918;2024-01-07T08:24:16;4.15;;;2.72;;
39314;SDS011;28703;44.412;11.918;2024-01-07T08:26:42;3.25;;;2.70;;
39314;SDS011;28703;44.412;11.918;2024-01-07T08:29:07;3.03;;;2.53;;
39314;SDS011;28703;44.412;11.918;2024-01-07T08:31:33;2.40;;;2.20;;
39314;SDS011;28703;44.412;11.918;2024-01-07T08:33:59;3.00;;;2.65;;
39314;SDS011;28703;44.412;11.918;2024-01-07T08:36:26;5.95;;;2.47;;
39314;SDS011;28703;44.412;11.918;2024-01-07T08:38:51;4.03;;;2.40;;
39314;SDS011;28703;44.412;11.918;2024-01-07T08:41:17;3.25;;;2.85;;
39314;SDS011;28703;44.412;11.918;2024-01-07T08:43:43;2.30;;;2.10;;
39314;SDS011;28703;44.412;11.918;2024-01-07T08:46:12;4.35;;;2.40;;
39314;SDS011;28703;44.412;11.918;2024-01-07T08:48:39;4.95;;;2.80;;
39314;SDS011;28703;44.412;11.918;2024-01-07T08:51:05;2.88;;;2.60;;
39314;SDS011;28703;44.412;11.918;2024-01-07T08:53:31;6.47;;;3.50;;
39314;SDS011;28703;44.412;11.918;2024-01-07T08:55:57;6.28;;;4.03;;
39314;SDS011;28703;44.412;11.918;2024-01-07T08:58:23;4.07;;;3.60;;
39314;SDS011;28703;44.412;11.918;2024-01-07T09:00:49;6.70;;;4.68;;
39314;SDS011;28703;44.412;11.918;2024-01-07T09:03:15;5.88;;;4.13;;
39314;SDS011;28703;44.412;11.918;2024-01-07T09:05:40;5.55;;;3.42;;
39314;SDS011;28703;44.412;11.918;2024-01-07T09:08:06;3.72;;;2.65;;
39314;SDS011;28703;44.412;11.918;2024-01-07T09:10:32;6.75;;;3.42;;
39314;SDS011;28703;44.412;11.918;2024-01-07T09:12:59;3.92;;;3.10;;
39314;SDS011;28703;44.412;11.918;2024-01-07T09:15:24;8.52;;;4.03;;
39314;SDS011;28703;44.412;11.918;2024-01-07T09:17:51;8.68;;;3.55;;
39314;SDS011;28703;44.412;11.918;2024-01-07T09:20:16;7.43;;;3.40;;
39314;SDS011;28703;44.412;11.918;2024-01-07T09:22:43;5.85;;;2.90;;
39314;SDS011;28703;44.412;11.918;2024-01-07T09:25:09;8.95;;;2.70;;
39314;SDS011;28703;44.412;11.918;2024-01-07T09:27:35;9.20;;;2.20;;
39314;SDS011;28703;44.412;11.918;2024-01-07T09:30:01;6.13;;;2.20;;
39314;SDS011;28703;44.412;11.918;2024-01-07T09:32:27;6.97;;;2.20;;
39314;SDS011;28703;44.412;11.918;2024-01-07T09:34:53;4.18;;;2.45;;
39314;SDS011;28703;44.412;11.918;2024-01-07T09:37:19;3.55;;;2.10;;
39314;SDS011;28703;44.412;11.918;2024-01-07T09:39:45;3.90;;;2.03;;
39314;SDS011;28703;44.412;11.918;2024-01-07T09:42:14;4.07;;;1.98;;
39314;SDS011;28703;44.412;11.918;2024-01-07T09:44:41;5.15;;;1.30;;
39314;SDS011;28703;44.412;11.918;2024-01-07T09:47:14;4.38;;;1.63;;
39314;SDS011;28703;44.412;11.918;2024-01-07T09:49:40;5.00;;;1.67;;
39314;SDS011;28703;44.412;11.918;2024-01-07T09:52:08;2.45;;;1.80;;
39314;SDS011;28703;44.412;11.918;2024-01-07T09:54:38;4.30;;;1.20;;
39314;SDS011;28703;44.412;11.918;2024-01-07T09:57:06;4.82;;;1.95;;
39314;SDS011;28703;44.412;11.918;2024-01-07T09:59:33;3.00;;;1.80;;
39314;SDS011;28703;44.412;11.918;2024-01-07T10:01:59;3.47;;;1.80;;
39314;SDS011;28703;44.412;11.918;2024-01-07T10:04:25;4.38;;;3.08;;
39314;SDS011;28703;44.412;11.918;2024-01-07T10:06:53;3.88;;;1.92;;
39314;SDS011;28703;44.412;11.918;2024-01-07T10:09:19;2.60;;;2.00;;
39314;SDS011;28703;44.412;11.918;2024-01-07T10:11:48;2.83;;;1.55;;
39314;SDS011;28703;44.412;11.918;2024-01-07T10:14:15;5.65;;;1.88;;
39314;SDS011;28703;44.412;11.918;2024-01-07T10:16:41;3.30;;;1.60;;
39314;SDS011;28703;44.412;11.918;2024-01-07T10:19:07;2.75;;;1.63;;
39314;SDS011;28703;44.412;11.918;2024-01-07T10:21:33;3.88;;;1.88;;
39314;SDS011;28703;44.412;11.918;2024-01-07T10:24:09;1.88;;;1.60;;
39314;SDS011;28703;44.412;11.918;2024-01-07T10:26:37;2.10;;;1.90;;
39314;SDS011;28703;44.412;11.918;2024-01-07T10:29:04;3.45;;;2.65;;
39314;SDS011;28703;44.412;11.918;2024-01-07T10:31:31;3.28;;;2.60;;
39314;SDS011;28703;44.412;11.918;2024-01-07T10:33:57;4.95;;;2.83;;
39314;SDS011;28703;44.412;11.918;2024-01-07T10:36:23;10.98;;;3.58;;
39314;SDS011;28703;44.412;11.918;2024-01-07T10:38:50;3.67;;;2.35;;
39314;SDS011;28703;44.412;11.918;2024-01-07T10:41:18;4.90;;;2.38;;
39314;SDS011;28703;44.412;11.918;2024-01-07T10:43:47;4.10;;;2.70;;
39314;SDS011;28703;44.412;11.918;2024-01-07T10:46:14;3.10;;;2.80;;
39314;SDS011;28703;44.412;11.918;2024-01-07T10:51:24;3.40;;;2.63;;
39314;SDS011;28703;44.412;11.918;2024-01-07T10:53:53;4.07;;;3.53;;
39314;SDS011;28703;44.412;11.918;2024-01-07T10:56:25;3.60;;;3.30;;
39314;SDS011;28703;44.412;11.918;2024-01-07T10:58:58;4.10;;;2.75;;
39314;SDS011;28703;44.412;11.918;2024-01-07T11:01:24;2.30;;;2.10;;
39314;SDS011;28703;44.412;11.918;2024-01-07T11:09:32;4.70;;;3.58;;
39314;SDS011;28703;44.412;11.918;2024-01-07T11:12:01;5.63;;;2.78;;
39314;SDS011;28703;44.412;11.918;2024-01-07T11:17:05;3.30;;;2.10;;
39314;SDS011;28703;44.412;11.918;2024-01-07T11:19:31;2.20;;;2.10;;
39314;SDS011;28703;44.412;11.918;2024-01-07T11:24:48;4.07;;;2.55;;
39314;SDS011;28703;44.412;11.918;2024-01-07T11:27:15;2.60;;;2.40;;
39314;SDS011;28703;44.412;11.918;2024-01-07T11:29:41;4.00;;;2.80;;
39314;SDS011;28703;44.412;11.918;2024-01-07T11:32:07;3.67;;;2.50;;
39314;SDS011;28703;44.412;11.918;2024-01-07T11:34:40;3.03;;;2.60;;
39314;SDS011;28703;44.412;11.918;2024-01-07T11:37:12;3.80;;;2.70;;
39314;SDS011;28703;44.412;11.918;2024-01-07T11:39:44;5.97;;;4.20;;
39314;SDS011;28703;44.412;11.918;2024-01-07T11:42:11;4.00;;;3.47;;
39314;SDS011;28703;44.412;11.918;2024-01-07T11:44:38;4.15;;;3.25;;
39314;SDS011;28703;44.412;11.918;2024-01-07T11:47:10;3.35;;;2.95;;
39314;SDS011;28703;44.412;11.918;2024-01-07T11:49:36;3.78;;;3.08;;
39314;SDS011;28703;44.412;11.918;2024-01-07T11:52:03;3.90;;;2.83;;
39314;SDS011;28703;44.412;11.918;2024-01-07T11:54:29;2.70;;;2.47;;
39314;SDS011;28703;44.412;11.918;2024-01-07T11:56:56;3.80;;;2.55;;
39314;SDS011;28703;44.412;11.918;2024-01-07T11:59:23;3.75;;;2.97;;
39314;SDS011;28703;44.412;11.918;2024-01-07T12:01:48;3.47;;;2.67;;
39314;SDS011;28703;44.412;11.918;2024-01-07T12:04:14;3.65;;;2.60;;
39314;SDS011;28703;44.412;11.918;2024-01-07T12:06:40;3.25;;;2.90;;
39314;SDS011;28703;44.412;11.918;2024-01-07T12:09:06;3.65;;;3.35;;
39314;SDS011;28703;44.412;11.918;2024-01-07T12:11:32;4.03;;;3.63;;
39314;SDS011;28703;44.412;11.918;2024-01-07T12:13:59;5.20;;;3.70;;
39314;SDS011;28703;44.412;11.918;2024-01-07T12:16:25;4.25;;;3.75;;
39314;SDS011;28703;44.412;11.918;2024-01-07T12:18:51;3.00;;;2.80;;
39314;SDS011;28703;44.412;11.918;2024-01-07T12:21:19;8.02;;;5.28;;
39314;SDS011;28703;44.412;11.918;2024-01-07T12:23:49;8.70;;;5.45;;
39314;SDS011;28703;44.412;11.918;2024-01-07T12:26:16;6.85;;;3.88;;
39314;SDS011;28703;44.412;11.918;2024-01-07T12:28:44;3.90;;;3.55;;
39314;SDS011;28703;44.412;11.918;2024-01-07T12:31:10;3.80;;;3.50;;
39314;SDS011;28703;44.412;11.918;2024-01-07T12:33:39;3.58;;;2.95;;
39314;SDS011;28703;44.412;11.918;2024-01-07T12:36:06;2.78;;;2.47;;
39314;SDS011;28703;44.412;11.918;2024-01-07T12:38:32;5.18;;;3.58;;
39314;SDS011;28703;44.412;11.918;2024-01-07T12:40:58;3.60;;;2.55;;
39314;SDS011;28703;44.412;11.918;2024-01-07T12:43:24;3.50;;;3.13;;
39314;SDS011;28703;44.412;11.918;2024-01-07T12:45:50;6.43;;;2.85;;
39314;SDS011;28703;44.412;11.918;2024-01-07T12:48:16;2.90;;;2.70;;
39314;SDS011;28703;44.412;11.918;2024-01-07T12:50:42;2.78;;;2.55;;
39314;SDS011;28703;44.412;11.918;2024-01-07T12:53:08;3.08;;;2.67;;
39314;SDS011;28703;44.412;11.918;2024-01-07T12:55:34;4.60;;;2.78;;
39314;SDS011;28703;44.412;11.918;2024-01-07T12:58:00;3.03;;;2.78;;
39314;SDS011;28703;44.412;11.918;2024-01-07T13:00:26;4.72;;;3.13;;
39314;SDS011;28703;44.412;11.918;2024-01-07T13:02:54;4.32;;;2.65;;
39314;SDS011;28703;44.412;11.918;2024-01-07T13:05:20;3.63;;;3.33;;
39314;SDS011;28703;44.412;11.918;2024-01-07T13:07:46;3.33;;;3.05;;
39314;SDS011;28703;44.412;11.918;2024-01-07T13:10:13;3.47;;;2.92;;
39314;SDS011;28703;44.412;11.918;2024-01-07T13:12:39;3.20;;;2.92;;
39314;SDS011;28703;44.412;11.918;2024-01-07T13:15:06;2.97;;;2.78;;
39314;SDS011;28703;44.412;11.918;2024-01-07T13:17:32;3.90;;;3.60;;
39314;SDS011;28703;44.412;11.918;2024-01-07T13:20:01;3.78;;;2.95;;
39314;SDS011;28703;44.412;11.918;2024-01-07T13:22:31;4.43;;;3.35;;
39314;SDS011;28703;44.412;11.918;2024-01-07T13:24:58;3.75;;;3.10;;
39314;SDS011;28703;44.412;11.918;2024-01-07T13:27:24;3.47;;;3.17;;
39314;SDS011;28703;44.412;11.918;2024-01-07T13:29:49;5.40;;;4.63;;
39314;SDS011;28703;44.412;11.918;2024-01-07T13:32:16;4.10;;;3.70;;
39314;SDS011;28703;44.412;11.918;2024-01-07T13:34:44;6.13;;;4.22;;
39314;SDS011;28703;44.412;11.918;2024-01-07T13:37:10;7.25;;;3.55;;
39314;SDS011;28703;44.412;11.918;2024-01-07T13:39:37;4.28;;;3.70;;
39314;SDS011;28703;44.412;11.918;2024-01-07T13:42:03;4.68;;;4.00;;
39314;SDS011;28703;44.412;11.918;2024-01-07T13:44:30;7.40;;;3.80;;
39314;SDS011;28703;44.412;11.918;2024-01-07T13:46:56;6.00;;;4.55;;
39314;SDS011;28703;44.412;11.918;2024-01-07T13:49:22;8.18;;;5.10;;
39314;SDS011;28703;44.412;11.918;2024-01-07T13:51:47;15.50;;;8.73;;
39314;SDS011;28703;44.412;11.918;2024-01-07T13:54:13;11.43;;;7.78;;
39314;SDS011;28703;44.412;11.918;2024-01-07T13:56:42;12.60;;;8.60;;
39314;SDS011;28703;44.412;11.918;2024-01-07T13:59:09;19.40;;;12.57;;
39314;SDS011;28703;44.412;11.918;2024-01-07T14:01:35;16.27;;;9.32;;
39314;SDS011;28703;44.412;11.918;2024-01-07T14:04:02;5.68;;;5.10;;
39314;SDS011;28703;44.412;11.918;2024-01-07T14:06:28;5.90;;;4.68;;
39314;SDS011;28703;44.412;11.918;2024-01-07T14:08:54;4.80;;;4.40;;
39314;SDS011;28703;44.412;11.918;2024-01-07T14:11:20;8.23;;;5.15;;
39314;SDS011;28703;44.412;11.918;2024-01-07T14:13:46;4.45;;;3.83;;
39314;SDS011;28703;44.412;11.918;2024-01-07T14:16:12;5.63;;;3.97;;
39314;SDS011;28703;44.412;11.918;2024-01-07T14:18:39;4.70;;;3.95;;
39314;SDS011;28703;44.412;11.918;2024-01-07T14:21:04;4.93;;;4.20;;
39314;SDS011;28703;44.412;11.918;2024-01-07T14:23:30;5.65;;;5.15;;
39314;SDS011;28703;44.412;11.918;2024-01-07T14:25:58;3.97;;;3.65;;
39314;SDS011;28703;44.412;11.918;2024-01-07T14:28:25;6.07;;;4.70;;
39314;SDS011;28703;44.412;11.918;2024-01-07T14:30:51;4.35;;;3.85;;
39314;SDS011;28703;44.412;11.918;2024-01-07T14:33:16;4.68;;;3.88;;
39314;SDS011;28703;44.412;11.918;2024-01-07T14:35:42;8.20;;;4.07;;
39314;SDS011;28703;44.412;11.918;2024-01-07T14:38:08;5.82;;;3.78;;
39314;SDS011;28703;44.412;11.918;2024-01-07T14:40:34;3.92;;;3.53;;
39314;SDS011;28703;44.412;11.918;2024-01-07T14:43:00;4.10;;;3.80;;
39314;SDS011;28703;44.412;11.918;2024-01-07T14:45:26;5.03;;;4.50;;
39314;SDS011;28703;44.412;11.918;2024-01-07T14:47:53;6.00;;;5.13;;